sensor_id;sensor_type;location;lat;lon;timestamp;temperature;humidity
5246;DHT22;54412;51.206;6.888;2023-09-08T00:01:33;22.30;99.90
5246;DHT22;54412;51.206;6.888;2023-09-08T00:03:58;22.30;99.90
5246;DHT22;54412;51.206;6.888;2023-09-08T00:06:24;22.20;99.90
5246;DHT22;54412;51.206;6.888;2023-09-08T00:08:50;22.20;99.90
5246;DHT22;54412;51.206;6.888;2023-09-08T00:11:15;22.20;99.90
5246;DHT22;54412;51.206;6.888;2023-09-08T00:13:41;22.20;99.90
5246;DHT22;54412;51.206;6.888;2023-09-08T00:16:07;22.20;99.90
5246;DHT22;54412;51.206;6.888;2023-09-08T00:18:33;22.20;99.90
5246;DHT22;54412;51.206;6.888;2023-09-08T00:20:59;22.20;99.90
5246;DHT22;54412;51.206;6.888;2023-09-08T00:23:24;22.10;99.90
5246;DHT22;54412;51.206;6.888;2023-09-08T00:25:52;22.10;99.90
5246;DHT22;54412;51.206;6.888;2023-09-08T00:28:17;22.10;99.90
5246;DHT22;54412;51.206;6.888;2023-09-08T00:30:43;22.10;99.90
5246;DHT22;54412;51.206;6.888;2023-09-08T00:33:09;22.00;99.90
5246;DHT22;54412;51.206;6.888;2023-09-08T00:35:36;22.00;99.90
5246;DHT22;54412;51.206;6.888;2023-09-08T00:38:03;22.00;99.90
5246;DHT22;54412;51.206;6.888;2023-09-08T00:40:29;22.00;99.90
5246;DHT22;54412;51.206;6.888;2023-09-08T00:42:55;22.00;99.90
5246;DHT22;54412;51.206;6.888;2023-09-08T00:45:20;22.00;99.90
5246;DHT22;54412;51.206;6.888;2023-09-08T00:47:46;21.90;99.90
5246;DHT22;54412;51.206;6.888;2023-09-08T00:50:12;21.80;99.90
5246;DHT22;54412;51.206;6.888;2023-09-08T00:52:38;21.80;99.90
5246;DHT22;54412;51.206;6.888;2023-09-08T00:55:04;21.80;99.90
5246;DHT22;54412;51.206;6.888;2023-09-08T00:57:31;21.80;99.90
5246;DHT22;54412;51.206;6.888;2023-09-08T00:59:57;21.70;99.90
5246;DHT22;54412;51.206;6.888;2023-09-08T01:02:23;21.70;99.90
5246;DHT22;54412;51.206;6.888;2023-09-08T01:04:49;21.60;99.90
5246;DHT22;54412;51.206;6.888;2023-09-08T01:07:15;21.70;99.90
5246;DHT22;54412;51.206;6.888;2023-09-08T01:09:42;21.70;99.90
5246;DHT22;54412;51.206;6.888;2023-09-08T01:12:08;21.60;99.90
5246;DHT22;54412;51.206;6.888;2023-09-08T01:14:34;21.60;99.90
5246;DHT22;54412;51.206;6.888;2023-09-08T01:16:59;21.60;99.90
5246;DHT22;54412;51.206;6.888;2023-09-08T01:19:26;21.50;99.90
5246;DHT22;54412;51.206;6.888;2023-09-08T01:27:39;21.40;99.90
5246;DHT22;54412;51.206;6.888;2023-09-08T01:30:09;21.50;99.90
5246;DHT22;54412;51.206;6.888;2023-09-08T01:32:36;21.40;99.90
5246;DHT22;54412;51.206;6.888;2023-09-08T01:35:02;21.30;99.90
5246;DHT22;54412;51.206;6.888;2023-09-08T01:37:28;21.40;99.90
5246;DHT22;54412;51.206;6.888;2023-09-08T01:39:54;21.30;99.90
5246;DHT22;54412;51.206;6.888;2023-09-08T01:42:19;21.20;99.90
5246;DHT22;54412;51.206;6.888;2023-09-08T01:44:45;21.10;99.90
5246;DHT22;54412;51.206;6.888;2023-09-08T01:47:11;21.10;99.90
5246;DHT22;54412;51.206;6.888;2023-09-08T01:49:36;21.10;99.90
5246;DHT22;54412;51.206;6.888;2023-09-08T01:52:02;21.10;99.90
5246;DHT22;54412;51.206;6.888;2023-09-08T01:54:28;21.10;99.90
5246;DHT22;54412;51.206;6.888;2023-09-08T01:56:53;21.10;99.90
5246;DHT22;54412;51.206;6.888;2023-09-08T01:59:19;21.10;99.90
5246;DHT22;54412;51.206;6.888;2023-09-08T02:01:45;21.00;99.90
5246;DHT22;54412;51.206;6.888;2023-09-08T02:04:10;21.00;99.90
5246;DHT22;54412;51.206;6.888;2023-09-08T02:06:36;20.90;99.90
5246;DHT22;54412;51.206;6.888;2023-09-08T02:09:02;20.80;99.90
5246;DHT22;54412;51.206;6.888;2023-09-08T02:11:28;20.90;99.90
5246;DHT22;54412;51.206;6.888;2023-09-08T02:13:54;20.90;99.90
5246;DHT22;54412;51.206;6.888;2023-09-08T02:16:20;21.00;99.90
5246;DHT22;54412;51.206;6.888;2023-09-08T02:18:45;20.90;99.90
5246;DHT22;54412;51.206;6.888;2023-09-08T02:21:11;21.00;99.90
5246;DHT22;54412;51.206;6.888;2023-09-08T02:23:37;21.00;99.90
5246;DHT22;54412;51.206;6.888;2023-09-08T02:26:03;20.80;99.90
5246;DHT22;54412;51.206;6.888;2023-09-08T02:28:29;20.90;99.90
5246;DHT22;54412;51.206;6.888;2023-09-08T02:30:55;20.90;99.90
5246;DHT22;54412;51.206;6.888;2023-09-08T02:33:22;20.70;99.90
5246;DHT22;54412;51.206;6.888;2023-09-08T02:35:47;20.70;99.90
5246;DHT22;54412;51.206;6.888;2023-09-08T02:38:13;20.80;99.90
5246;DHT22;54412;51.206;6.888;2023-09-08T02:40:38;20.80;99.90
5246;DHT22;54412;51.206;6.888;2023-09-08T02:43:04;20.70;99.90
5246;DHT22;54412;51.206;6.888;2023-09-08T02:45:30;20.50;99.90
5246;DHT22;54412;51.206;6.888;2023-09-08T02:47:56;20.50;99.90
5246;DHT22;54412;51.206;6.888;2023-09-08T02:50:22;20.60;99.90
5246;DHT22;54412;51.206;6.888;2023-09-08T02:52:49;20.50;99.90
5246;DHT22;54412;51.206;6.888;2023-09-08T02:55:15;20.60;99.90
5246;DHT22;54412;51.206;6.888;2023-09-08T02:57:40;20.60;99.90
5246;DHT22;54412;51.206;6.888;2023-09-08T03:00:07;20.50;99.90
5246;DHT22;54412;51.206;6.888;2023-09-08T03:02:33;20.50;99.90
5246;DHT22;54412;51.206;6.888;2023-09-08T03:05:00;20.50;99.90
5246;DHT22;54412;51.206;6.888;2023-09-08T03:07:27;20.40;99.90
5246;DHT22;54412;51.206;6.888;2023-09-08T03:09:53;20.10;99.90
5246;DHT22;54412;51.206;6.888;2023-09-08T03:12:19;20.00;99.90
5246;DHT22;54412;51.206;6.888;2023-09-08T03:14:44;20.00;99.90
5246;DHT22;54412;51.206;6.888;2023-09-08T03:17:11;20.10;99.90
5246;DHT22;54412;51.206;6.888;2023-09-08T03:19:38;20.20;99.90
5246;DHT22;54412;51.206;6.888;2023-09-08T03:22:04;20.30;99.90
5246;DHT22;54412;51.206;6.888;2023-09-08T03:24:30;20.30;99.90
5246;DHT22;54412;51.206;6.888;2023-09-08T03:26:55;20.30;99.90
5246;DHT22;54412;51.206;6.888;2023-09-08T03:29:23;20.40;99.90
5246;DHT22;54412;51.206;6.888;2023-09-08T03:31:48;20.20;99.90
5246;DHT22;54412;51.206;6.888;2023-09-08T03:34:14;20.10;99.90
5246;DHT22;54412;51.206;6.888;2023-09-08T03:36:40;20.20;99.90
5246;DHT22;54412;51.206;6.888;2023-09-08T03:39:05;20.20;99.90
5246;DHT22;54412;51.206;6.888;2023-09-08T03:41:31;20.20;99.90
5246;DHT22;54412;51.206;6.888;2023-09-08T03:43:57;20.10;99.90
5246;DHT22;54412;51.206;6.888;2023-09-08T03:46:22;20.20;99.90
5246;DHT22;54412;51.206;6.888;2023-09-08T03:48:50;20.20;99.90
5246;DHT22;54412;51.206;6.888;2023-09-08T03:51:15;20.20;99.90
5246;DHT22;54412;51.206;6.888;2023-09-08T03:53:41;20.20;99.90
5246;DHT22;54412;51.206;6.888;2023-09-08T03:56:07;20.20;99.90
5246;DHT22;54412;51.206;6.888;2023-09-08T03:58:32;20.10;99.90
5246;DHT22;54412;51.206;6.888;2023-09-08T04:00:58;20.10;99.90
5246;DHT22;54412;51.206;6.888;2023-09-08T04:03:24;20.10;99.90
5246;DHT22;54412;51.206;6.888;2023-09-08T04:05:50;20.10;99.90
5246;DHT22;54412;51.206;6.888;2023-09-08T04:08:15;20.10;99.90
5246;DHT22;54412;51.206;6.888;2023-09-08T04:10:41;20.10;99.90
5246;DHT22;54412;51.206;6.888;2023-09-08T04:13:07;20.00;99.90
5246;DHT22;54412;51.206;6.888;2023-09-08T04:15:32;19.90;99.90
5246;DHT22;54412;51.206;6.888;2023-09-08T04:17:58;19.90;99.90
5246;DHT22;54412;51.206;6.888;2023-09-08T04:20:24;19.80;99.90
5246;DHT22;54412;51.206;6.888;2023-09-08T04:22:50;19.80;99.90
5246;DHT22;54412;51.206;6.888;2023-09-08T04:25:16;19.90;99.90
5246;DHT22;54412;51.206;6.888;2023-09-08T04:27:42;19.90;99.90
5246;DHT22;54412;51.206;6.888;2023-09-08T04:30:10;20.00;99.90
5246;DHT22;54412;51.206;6.888;2023-09-08T04:32:37;20.00;99.90
5246;DHT22;54412;51.206;6.888;2023-09-08T04:35:03;19.80;99.90
5246;DHT22;54412;51.206;6.888;2023-09-08T04:37:29;19.80;99.90
5246;DHT22;54412;51.206;6.888;2023-09-08T04:39:56;19.80;99.90
5246;DHT22;54412;51.206;6.888;2023-09-08T04:42:22;19.80;99.90
5246;DHT22;54412;51.206;6.888;2023-09-08T04:44:48;19.70;99.90
5246;DHT22;54412;51.206;6.888;2023-09-08T04:47:14;19.80;99.90
5246;DHT22;54412;51.206;6.888;2023-09-08T04:49:40;19.80;99.90
5246;DHT22;54412;51.206;6.888;2023-09-08T04:52:06;19.80;99.90
5246;DHT22;54412;51.206;6.888;2023-09-08T04:54:31;19.80;99.90
5246;DHT22;54412;51.206;6.888;2023-09-08T04:56:57;19.80;99.90
5246;DHT22;54412;51.206;6.888;2023-09-08T04:59:24;19.80;99.90
5246;DHT22;54412;51.206;6.888;2023-09-08T05:01:50;19.90;99.90
5246;DHT22;54412;51.206;6.888;2023-09-08T05:04:17;19.80;99.90
5246;DHT22;54412;51.206;6.888;2023-09-08T05:06:43;19.80;99.90
5246;DHT22;54412;51.206;6.888;2023-09-08T05:09:09;19.70;99.90
5246;DHT22;54412;51.206;6.888;2023-09-08T05:11:35;19.80;99.90
5246;DHT22;54412;51.206;6.888;2023-09-08T05:14:01;19.90;99.90
5246;DHT22;54412;51.206;6.888;2023-09-08T05:16:27;19.80;99.90
5246;DHT22;54412;51.206;6.888;2023-09-08T05:19:05;19.80;99.90
5246;DHT22;54412;51.206;6.888;2023-09-08T05:21:34;19.70;99.90
5246;DHT22;54412;51.206;6.888;2023-09-08T05:24:00;19.70;99.90
5246;DHT22;54412;51.206;6.888;2023-09-08T05:26:25;19.70;99.90
5246;DHT22;54412;51.206;6.888;2023-09-08T05:28:51;19.60;99.90
5246;DHT22;54412;51.206;6.888;2023-09-08T05:31:17;19.60;99.90
5246;DHT22;54412;51.206;6.888;2023-09-08T05:33:42;19.70;99.90
5246;DHT22;54412;51.206;6.888;2023-09-08T05:36:08;19.70;99.90
5246;DHT22;54412;51.206;6.888;2023-09-08T05:38:33;19.70;99.90
5246;DHT22;54412;51.206;6.888;2023-09-08T05:40:59;19.70;99.90
5246;DHT22;54412;51.206;6.888;2023-09-08T05:43:25;19.70;99.90
5246;DHT22;54412;51.206;6.888;2023-09-08T05:45:51;19.80;99.90
5246;DHT22;54412;51.206;6.888;2023-09-08T05:48:16;19.80;99.90
5246;DHT22;54412;51.206;6.888;2023-09-08T05:50:42;19.90;99.90
5246;DHT22;54412;51.206;6.888;2023-09-08T05:53:08;19.80;99.90
5246;DHT22;54412;51.206;6.888;2023-09-08T05:55:34;19.80;99.90
5246;DHT22;54412;51.206;6.888;2023-09-08T05:57:59;19.80;99.90
5246;DHT22;54412;51.206;6.888;2023-09-08T06:00:25;19.80;99.90
5246;DHT22;54412;51.206;6.888;2023-09-08T06:02:51;19.80;99.90
5246;DHT22;54412;51.206;6.888;2023-09-08T06:05:17;19.90;99.90
5246;DHT22;54412;51.206;6.888;2023-09-08T06:07:43;19.90;99.90
5246;DHT22;54412;51.206;6.888;2023-09-08T06:10:09;20.00;99.90
5246;DHT22;54412;51.206;6.888;2023-09-08T06:12:35;20.00;99.90
5246;DHT22;54412;51.206;6.888;2023-09-08T06:15:04;20.10;99.90
5246;DHT22;54412;51.206;6.888;2023-09-08T06:17:31;20.20;99.90
5246;DHT22;54412;51.206;6.888;2023-09-08T06:19:56;20.20;99.90
5246;DHT22;54412;51.206;6.888;2023-09-08T06:22:22;20.30;99.90
5246;DHT22;54412;51.206;6.888;2023-09-08T06:24:47;20.30;99.90
5246;DHT22;54412;51.206;6.888;2023-09-08T06:27:17;20.30;99.90
5246;DHT22;54412;51.206;6.888;2023-09-08T06:29:42;20.40;99.90
5246;DHT22;54412;51.206;6.888;2023-09-08T06:32:09;20.40;99.90
5246;DHT22;54412;51.206;6.888;2023-09-08T06:34:35;20.60;99.90
5246;DHT22;54412;51.206;6.888;2023-09-08T06:37:02;20.60;99.90
5246;DHT22;54412;51.206;6.888;2023-09-08T06:39:28;20.70;99.90
5246;DHT22;54412;51.206;6.888;2023-09-08T06:41:54;20.90;99.90
5246;DHT22;54412;51.206;6.888;2023-09-08T06:44:22;21.10;99.90
5246;DHT22;54412;51.206;6.888;2023-09-08T06:46:48;21.10;99.90
5246;DHT22;54412;51.206;6.888;2023-09-08T06:49:14;21.20;99.90
5246;DHT22;54412;51.206;6.888;2023-09-08T06:51:39;21.30;99.90
5246;DHT22;54412;51.206;6.888;2023-09-08T06:54:05;21.20;99.90
5246;DHT22;54412;51.206;6.888;2023-09-08T06:56:31;21.20;99.90
5246;DHT22;54412;51.206;6.888;2023-09-08T06:58:57;21.30;99.90
5246;DHT22;54412;51.206;6.888;2023-09-08T07:01:25;21.40;99.90
5246;DHT22;54412;51.206;6.888;2023-09-08T07:03:51;21.50;99.90
5246;DHT22;54412;51.206;6.888;2023-09-08T07:06:17;21.70;99.90
5246;DHT22;54412;51.206;6.888;2023-09-08T07:08:43;21.90;99.90
5246;DHT22;54412;51.206;6.888;2023-09-08T07:11:09;22.00;99.90
5246;DHT22;54412;51.206;6.888;2023-09-08T07:13:34;22.20;99.90
5246;DHT22;54412;51.206;6.888;2023-09-08T07:16:00;22.30;99.90
5246;DHT22;54412;51.206;6.888;2023-09-08T07:18:26;22.30;99.90
5246;DHT22;54412;51.206;6.888;2023-09-08T07:20:52;22.30;99.90
5246;DHT22;54412;51.206;6.888;2023-09-08T07:23:18;22.30;99.90
5246;DHT22;54412;51.206;6.888;2023-09-08T07:25:47;22.40;99.90
5246;DHT22;54412;51.206;6.888;2023-09-08T07:28:14;22.50;99.90
5246;DHT22;54412;51.206;6.888;2023-09-08T07:30:41;22.60;99.90
5246;DHT22;54412;51.206;6.888;2023-09-08T07:33:07;22.70;99.90
5246;DHT22;54412;51.206;6.888;2023-09-08T07:35:35;22.80;99.90
5246;DHT22;54412;51.206;6.888;2023-09-08T07:38:02;22.90;99.90
5246;DHT22;54412;51.206;6.888;2023-09-08T07:40:28;23.00;99.90
5246;DHT22;54412;51.206;6.888;2023-09-08T07:42:54;23.20;99.90
5246;DHT22;54412;51.206;6.888;2023-09-08T07:45:19;23.30;99.90
5246;DHT22;54412;51.206;6.888;2023-09-08T07:47:45;23.40;99.90
5246;DHT22;54412;51.206;6.888;2023-09-08T07:50:22;23.40;99.90
5246;DHT22;54412;51.206;6.888;2023-09-08T07:52:51;23.50;99.90
5246;DHT22;54412;51.206;6.888;2023-09-08T07:55:18;23.50;99.90
5246;DHT22;54412;51.206;6.888;2023-09-08T07:57:45;23.60;99.90
5246;DHT22;54412;51.206;6.888;2023-09-08T08:00:12;23.80;99.90
5246;DHT22;54412;51.206;6.888;2023-09-08T08:02:43;23.80;99.90
5246;DHT22;54412;51.206;6.888;2023-09-08T08:05:11;23.90;99.90
5246;DHT22;54412;51.206;6.888;2023-09-08T08:07:37;23.90;99.90
5246;DHT22;54412;51.206;6.888;2023-09-08T08:10:04;24.20;99.90
5246;DHT22;54412;51.206;6.888;2023-09-08T08:12:30;24.30;99.90
5246;DHT22;54412;51.206;6.888;2023-09-08T08:14:56;24.50;99.90
5246;DHT22;54412;51.206;6.888;2023-09-08T08:17:21;24.60;99.90
5246;DHT22;54412;51.206;6.888;2023-09-08T08:19:47;24.70;99.90
5246;DHT22;54412;51.206;6.888;2023-09-08T08:22:13;24.80;99.90
5246;DHT22;54412;51.206;6.888;2023-09-08T08:24:38;24.90;99.90
5246;DHT22;54412;51.206;6.888;2023-09-08T08:27:04;24.90;99.90
5246;DHT22;54412;51.206;6.888;2023-09-08T08:29:31;24.90;99.90
5246;DHT22;54412;51.206;6.888;2023-09-08T08:31:56;25.00;99.90
5246;DHT22;54412;51.206;6.888;2023-09-08T08:34:22;25.00;99.90
5246;DHT22;54412;51.206;6.888;2023-09-08T08:36:47;25.10;99.90
5246;DHT22;54412;51.206;6.888;2023-09-08T08:39:13;25.20;99.90
5246;DHT22;54412;51.206;6.888;2023-09-08T08:41:40;25.50;99.90
5246;DHT22;54412;51.206;6.888;2023-09-08T08:44:07;25.50;99.90
5246;DHT22;54412;51.206;6.888;2023-09-08T08:46:35;25.40;99.90
5246;DHT22;54412;51.206;6.888;2023-09-08T08:49:06;25.60;99.90
5246;DHT22;54412;51.206;6.888;2023-09-08T08:51:32;25.80;99.90
5246;DHT22;54412;51.206;6.888;2023-09-08T08:54:00;26.00;99.90
5246;DHT22;54412;51.206;6.888;2023-09-08T08:56:32;26.10;99.90
5246;DHT22;54412;51.206;6.888;2023-09-08T08:59:01;26.10;99.90
5246;DHT22;54412;51.206;6.888;2023-09-08T09:01:28;26.00;99.90
5246;DHT22;54412;51.206;6.888;2023-09-08T09:03:55;26.20;99.90
5246;DHT22;54412;51.206;6.888;2023-09-08T09:06:23;26.20;99.90
5246;DHT22;54412;51.206;6.888;2023-09-08T09:08:48;26.30;99.90
5246;DHT22;54412;51.206;6.888;2023-09-08T09:11:14;26.40;99.90
5246;DHT22;54412;51.206;6.888;2023-09-08T09:13:41;26.50;99.90
5246;DHT22;54412;51.206;6.888;2023-09-08T09:16:06;26.50;99.90
5246;DHT22;54412;51.206;6.888;2023-09-08T09:18:53;26.70;99.90
5246;DHT22;54412;51.206;6.888;2023-09-08T09:21:23;26.80;99.90
5246;DHT22;54412;51.206;6.888;2023-09-08T09:23:50;26.90;99.90
5246;DHT22;54412;51.206;6.888;2023-09-08T09:26:26;27.00;99.90
5246;DHT22;54412;51.206;6.888;2023-09-08T09:28:52;27.20;99.90
5246;DHT22;54412;51.206;6.888;2023-09-08T09:31:23;27.20;99.90
5246;DHT22;54412;51.206;6.888;2023-09-08T09:34:04;27.00;99.90
5246;DHT22;54412;51.206;6.888;2023-09-08T09:36:30;27.10;99.90
5246;DHT22;54412;51.206;6.888;2023-09-08T09:39:00;27.10;99.90
5246;DHT22;54412;51.206;6.888;2023-09-08T09:41:28;27.40;99.90
5246;DHT22;54412;51.206;6.888;2023-09-08T09:43:56;27.40;99.90
5246;DHT22;54412;51.206;6.888;2023-09-08T09:46:22;27.60;99.90
5246;DHT22;54412;51.206;6.888;2023-09-08T09:48:53;27.70;99.90
5246;DHT22;54412;51.206;6.888;2023-09-08T09:51:21;27.80;99.90
5246;DHT22;54412;51.206;6.888;2023-09-08T09:53:49;27.80;99.90
5246;DHT22;54412;51.206;6.888;2023-09-08T09:56:17;27.80;99.90
5246;DHT22;54412;51.206;6.888;2023-09-08T09:58:44;28.00;99.90
5246;DHT22;54412;51.206;6.888;2023-09-08T10:01:11;27.90;99.90
5246;DHT22;54412;51.206;6.888;2023-09-08T10:03:40;27.90;99.90
5246;DHT22;54412;51.206;6.888;2023-09-08T10:06:06;28.00;99.90
5246;DHT22;54412;51.206;6.888;2023-09-08T10:08:34;28.20;99.90
5246;DHT22;54412;51.206;6.888;2023-09-08T10:11:06;28.20;99.90
5246;DHT22;54412;51.206;6.888;2023-09-08T10:13:39;28.30;99.90
5246;DHT22;54412;51.206;6.888;2023-09-08T10:16:08;28.40;99.90
5246;DHT22;54412;51.206;6.888;2023-09-08T10:18:39;28.40;99.90
5246;DHT22;54412;51.206;6.888;2023-09-08T10:21:10;28.50;99.90
5246;DHT22;54412;51.206;6.888;2023-09-08T10:23:43;28.40;99.90
5246;DHT22;54412;51.206;6.888;2023-09-08T10:26:18;28.60;99.90
5246;DHT22;54412;51.206;6.888;2023-09-08T10:28:56;28.80;99.90
5246;DHT22;54412;51.206;6.888;2023-09-08T10:31:25;28.80;99.90
5246;DHT22;54412;51.206;6.888;2023-09-08T10:33:56;28.70;99.90
5246;DHT22;54412;51.206;6.888;2023-09-08T10:36:26;28.70;99.90
5246;DHT22;54412;51.206;6.888;2023-09-08T10:38:53;28.70;99.90
5246;DHT22;54412;51.206;6.888;2023-09-08T10:43:58;29.00;99.90
5246;DHT22;54412;51.206;6.888;2023-09-08T10:46:29;29.20;99.90
5246;DHT22;54412;51.206;6.888;2023-09-08T10:49:04;29.50;99.90
5246;DHT22;54412;51.206;6.888;2023-09-08T10:51:33;29.50;99.90
5246;DHT22;54412;51.206;6.888;2023-09-08T10:54:00;29.60;99.90
5246;DHT22;54412;51.206;6.888;2023-09-08T10:56:47;29.40;99.90
5246;DHT22;54412;51.206;6.888;2023-09-08T10:59:21;29.20;99.90
5246;DHT22;54412;51.206;6.888;2023-09-08T11:01:47;29.20;99.90
5246;DHT22;54412;51.206;6.888;2023-09-08T11:04:13;29.20;99.90
5246;DHT22;54412;51.206;6.888;2023-09-08T11:06:44;29.20;99.90
5246;DHT22;54412;51.206;6.888;2023-09-08T11:09:09;29.30;99.90
5246;DHT22;54412;51.206;6.888;2023-09-08T11:11:35;29.40;99.90
5246;DHT22;54412;51.206;6.888;2023-09-08T11:14:02;29.50;99.90
5246;DHT22;54412;51.206;6.888;2023-09-08T11:16:28;29.50;99.90
5246;DHT22;54412;51.206;6.888;2023-09-08T11:18:57;29.40;99.90
5246;DHT22;54412;51.206;6.888;2023-09-08T11:21:22;29.60;99.90
5246;DHT22;54412;51.206;6.888;2023-09-08T11:23:48;29.70;99.90
5246;DHT22;54412;51.206;6.888;2023-09-08T11:26:14;29.70;99.90
5246;DHT22;54412;51.206;6.888;2023-09-08T11:28:41;29.80;99.90
5246;DHT22;54412;51.206;6.888;2023-09-08T11:31:07;29.90;99.90
5246;DHT22;54412;51.206;6.888;2023-09-08T11:33:34;30.00;99.90
5246;DHT22;54412;51.206;6.888;2023-09-08T11:36:11;30.20;99.90
5246;DHT22;54412;51.206;6.888;2023-09-08T11:38:43;30.10;99.90
5246;DHT22;54412;51.206;6.888;2023-09-08T11:41:10;30.10;99.90
5246;DHT22;54412;51.206;6.888;2023-09-08T11:43:36;30.30;99.90
5246;DHT22;54412;51.206;6.888;2023-09-08T11:46:02;30.40;99.90
5246;DHT22;54412;51.206;6.888;2023-09-08T11:48:28;30.50;99.90
5246;DHT22;54412;51.206;6.888;2023-09-08T11:50:54;30.60;99.90
5246;DHT22;54412;51.206;6.888;2023-09-08T11:53:21;30.60;99.90
5246;DHT22;54412;51.206;6.888;2023-09-08T11:55:48;30.80;99.90
5246;DHT22;54412;51.206;6.888;2023-09-08T11:58:14;30.70;99.90
5246;DHT22;54412;51.206;6.888;2023-09-08T12:00:42;30.70;99.90
5246;DHT22;54412;51.206;6.888;2023-09-08T12:03:13;30.70;99.90
5246;DHT22;54412;51.206;6.888;2023-09-08T12:05:40;30.80;99.90
5246;DHT22;54412;51.206;6.888;2023-09-08T12:08:09;30.90;99.90
5246;DHT22;54412;51.206;6.888;2023-09-08T12:10:41;30.90;99.90
5246;DHT22;54412;51.206;6.888;2023-09-08T12:13:08;31.00;99.90
5246;DHT22;54412;51.206;6.888;2023-09-08T12:15:41;30.90;99.90
5246;DHT22;54412;51.206;6.888;2023-09-08T12:18:11;30.90;99.90
5246;DHT22;54412;51.206;6.888;2023-09-08T12:20:39;30.90;99.90
5246;DHT22;54412;51.206;6.888;2023-09-08T12:23:06;31.20;99.90
5246;DHT22;54412;51.206;6.888;2023-09-08T12:25:45;31.30;99.90
5246;DHT22;54412;51.206;6.888;2023-09-08T12:28:12;31.40;99.90
5246;DHT22;54412;51.206;6.888;2023-09-08T12:30:38;31.30;99.90
5246;DHT22;54412;51.206;6.888;2023-09-08T12:33:04;31.20;99.90
5246;DHT22;54412;51.206;6.888;2023-09-08T12:35:30;31.10;99.90
5246;DHT22;54412;51.206;6.888;2023-09-08T12:37:58;31.00;99.90
5246;DHT22;54412;51.206;6.888;2023-09-08T12:40:29;31.10;99.90
5246;DHT22;54412;51.206;6.888;2023-09-08T12:42:56;31.20;99.90
5246;DHT22;54412;51.206;6.888;2023-09-08T12:45:26;31.20;99.90
5246;DHT22;54412;51.206;6.888;2023-09-08T12:47:53;31.40;99.90
5246;DHT22;54412;51.206;6.888;2023-09-08T12:50:24;31.50;99.90
5246;DHT22;54412;51.206;6.888;2023-09-08T12:52:50;31.50;99.90
5246;DHT22;54412;51.206;6.888;2023-09-08T12:55:16;31.20;99.90
5246;DHT22;54412;51.206;6.888;2023-09-08T12:57:43;31.10;99.90
5246;DHT22;54412;51.206;6.888;2023-09-08T13:00:09;31.10;99.90
5246;DHT22;54412;51.206;6.888;2023-09-08T13:02:35;31.20;99.90
5246;DHT22;54412;51.206;6.888;2023-09-08T13:05:02;31.40;99.90
5246;DHT22;54412;51.206;6.888;2023-09-08T13:07:28;31.40;99.90
5246;DHT22;54412;51.206;6.888;2023-09-08T13:09:54;31.30;99.90
5246;DHT22;54412;51.206;6.888;2023-09-08T13:12:20;31.20;99.90
5246;DHT22;54412;51.206;6.888;2023-09-08T13:14:45;31.20;99.90
5246;DHT22;54412;51.206;6.888;2023-09-08T13:17:12;31.20;99.90
5246;DHT22;54412;51.206;6.888;2023-09-08T13:19:38;31.10;99.90
5246;DHT22;54412;51.206;6.888;2023-09-08T13:22:05;30.90;99.90
5246;DHT22;54412;51.206;6.888;2023-09-08T13:24:30;31.00;99.90
5246;DHT22;54412;51.206;6.888;2023-09-08T13:26:57;31.20;99.90
5246;DHT22;54412;51.206;6.888;2023-09-08T13:29:22;31.40;99.90
5246;DHT22;54412;51.206;6.888;2023-09-08T13:31:48;31.60;99.90
5246;DHT22;54412;51.206;6.888;2023-09-08T13:34:14;31.70;99.90
5246;DHT22;54412;51.206;6.888;2023-09-08T13:36:39;31.80;99.90
5246;DHT22;54412;51.206;6.888;2023-09-08T13:39:05;31.70;99.90
5246;DHT22;54412;51.206;6.888;2023-09-08T13:42:03;31.60;99.90
5246;DHT22;54412;51.206;6.888;2023-09-08T13:44:29;31.50;99.90
5246;DHT22;54412;51.206;6.888;2023-09-08T13:46:55;31.60;99.90
5246;DHT22;54412;51.206;6.888;2023-09-08T13:49:21;31.70;99.90
5246;DHT22;54412;51.206;6.888;2023-09-08T13:51:50;31.70;99.90
5246;DHT22;54412;51.206;6.888;2023-09-08T13:54:17;31.80;99.90
5246;DHT22;54412;51.206;6.888;2023-09-08T13:56:43;31.90;99.90
5246;DHT22;54412;51.206;6.888;2023-09-08T13:59:09;31.90;99.90
5246;DHT22;54412;51.206;6.888;2023-09-08T14:01:37;31.80;99.90
5246;DHT22;54412;51.206;6.888;2023-09-08T14:04:04;31.80;99.90
5246;DHT22;54412;51.206;6.888;2023-09-08T14:06:32;32.00;99.90
5246;DHT22;54412;51.206;6.888;2023-09-08T14:08:58;31.80;99.90
5246;DHT22;54412;51.206;6.888;2023-09-08T14:11:24;31.90;99.90
5246;DHT22;54412;51.206;6.888;2023-09-08T14:13:50;31.80;99.90
5246;DHT22;54412;51.206;6.888;2023-09-08T14:16:17;31.80;99.90
5246;DHT22;54412;51.206;6.888;2023-09-08T14:18:44;31.80;99.90
5246;DHT22;54412;51.206;6.888;2023-09-08T14:21:10;31.70;99.90
5246;DHT22;54412;51.206;6.888;2023-09-08T14:23:36;31.70;99.90
5246;DHT22;54412;51.206;6.888;2023-09-08T14:26:03;31.80;99.90
5246;DHT22;54412;51.206;6.888;2023-09-08T14:28:29;31.40;99.90
5246;DHT22;54412;51.206;6.888;2023-09-08T14:30:59;31.50;99.90
5246;DHT22;54412;51.206;6.888;2023-09-08T14:33:25;31.50;99.90
5246;DHT22;54412;51.206;6.888;2023-09-08T14:35:50;31.50;99.90
5246;DHT22;54412;51.206;6.888;2023-09-08T14:38:20;31.50;99.90
5246;DHT22;54412;51.206;6.888;2023-09-08T14:40:57;31.40;99.90
5246;DHT22;54412;51.206;6.888;2023-09-08T14:43:24;31.30;99.90
5246;DHT22;54412;51.206;6.888;2023-09-08T14:45:51;31.00;99.90
5246;DHT22;54412;51.206;6.888;2023-09-08T14:48:17;31.00;99.90
5246;DHT22;54412;51.206;6.888;2023-09-08T14:50:43;31.00;99.90
5246;DHT22;54412;51.206;6.888;2023-09-08T14:53:09;30.90;99.90
5246;DHT22;54412;51.206;6.888;2023-09-08T14:55:35;30.80;99.90
5246;DHT22;54412;51.206;6.888;2023-09-08T14:58:01;30.70;99.90
5246;DHT22;54412;51.206;6.888;2023-09-08T15:00:27;30.70;99.90
5246;DHT22;54412;51.206;6.888;2023-09-08T15:02:53;30.80;99.90
5246;DHT22;54412;51.206;6.888;2023-09-08T15:05:18;30.80;99.90
5246;DHT22;54412;51.206;6.888;2023-09-08T15:07:44;30.60;99.90
5246;DHT22;54412;51.206;6.888;2023-09-08T15:10:10;30.60;99.90
5246;DHT22;54412;51.206;6.888;2023-09-08T15:12:36;30.60;99.90
5246;DHT22;54412;51.206;6.888;2023-09-08T15:15:02;30.60;99.90
5246;DHT22;54412;51.206;6.888;2023-09-08T15:17:28;30.60;99.90
5246;DHT22;54412;51.206;6.888;2023-09-08T15:19:55;30.60;99.90
5246;DHT22;54412;51.206;6.888;2023-09-08T15:22:20;30.40;99.90
5246;DHT22;54412;51.206;6.888;2023-09-08T15:24:46;30.40;99.90
5246;DHT22;54412;51.206;6.888;2023-09-08T15:27:11;30.30;99.90
5246;DHT22;54412;51.206;6.888;2023-09-08T15:29:38;30.20;99.90
5246;DHT22;54412;51.206;6.888;2023-09-08T15:32:03;30.10;99.90
5246;DHT22;54412;51.206;6.888;2023-09-08T15:34:29;30.10;99.90
5246;DHT22;54412;51.206;6.888;2023-09-08T15:36:55;30.10;99.90
5246;DHT22;54412;51.206;6.888;2023-09-08T15:39:20;30.00;99.90
5246;DHT22;54412;51.206;6.888;2023-09-08T15:41:46;30.10;99.90
5246;DHT22;54412;51.206;6.888;2023-09-08T15:44:12;30.10;99.90
5246;DHT22;54412;51.206;6.888;2023-09-08T15:46:39;30.00;99.90
5246;DHT22;54412;51.206;6.888;2023-09-08T15:49:05;30.00;99.90
5246;DHT22;54412;51.206;6.888;2023-09-08T15:51:31;30.00;99.90